createdAt,value
2019-04-04T00:01:48.814Z,85.88
2019-04-04T00:04:16.000Z,85.61
2019-04-04T00:06:42.721Z,85.75
2019-04-04T00:09:11.089Z,85.99
2019-04-04T00:11:37.661Z,87.57
2019-04-04T00:14:04.450Z,88.52
2019-04-04T00:16:31.188Z,88.96
2019-04-04T00:18:59.084Z,89.42
2019-04-04T00:21:25.868Z,89.94
2019-04-04T00:23:52.610Z,90.27
2019-04-04T00:26:19.309Z,90.36
2019-04-04T00:28:46.919Z,90.93
2019-04-04T00:31:13.889Z,90.97
2019-04-04T00:33:40.814Z,91.27
2019-04-04T00:36:07.446Z,91.28
2019-04-04T00:38:34.045Z,91.28
2019-04-04T00:41:01.157Z,91.56
2019-04-04T00:43:27.816Z,91.51
2019-04-04T00:45:54.445Z,91.51
2019-04-04T00:48:21.235Z,90.92
2019-04-04T00:50:48.151Z,90.46
2019-04-04T00:53:14.880Z,90.54
2019-04-04T00:55:41.827Z,90.59
2019-04-04T00:58:08.413Z,90.44
2019-04-04T01:00:35.142Z,90.90
2019-04-04T01:03:01.811Z,90.91
2019-04-04T01:05:30.131Z,90.92
2019-04-04T01:07:57.209Z,90.99
2019-04-04T01:10:23.858Z,91.36
2019-04-04T01:12:52.119Z,91.18
2019-04-04T01:15:19.283Z,91.18
2019-04-04T01:17:45.985Z,91.30
2019-04-04T01:20:13.001Z,91.15
2019-04-04T01:22:41.863Z,91.54
2019-04-04T01:25:08.767Z,91.62
2019-04-04T01:27:37.655Z,92.00
2019-04-04T01:30:05.217Z,91.96
2019-04-04T01:32:31.828Z,92.09
2019-04-04T01:35:00.051Z,92.09
2019-04-04T01:37:27.797Z,92.26
2019-04-04T01:39:54.484Z,92.69
2019-04-04T01:42:21.464Z,93.07
2019-04-04T01:44:49.178Z,93.13
2019-04-04T01:47:17.648Z,93.27
2019-04-04T01:49:44.836Z,93.26
2019-04-04T01:52:11.549Z,93.49
2019-04-04T01:54:38.282Z,93.42
2019-04-04T01:57:07.709Z,93.49
2019-04-04T01:59:33.591Z,93.38
2019-04-04T02:02:00.560Z,93.68
2019-04-04T02:04:27.306Z,93.50
2019-04-04T02:06:54.188Z,93.54
2019-04-04T02:09:21.786Z,93.62
2019-04-04T02:11:48.686Z,93.55
2019-04-04T02:14:15.645Z,93.57
2019-04-04T02:16:42.215Z,93.60
2019-04-04T02:19:08.837Z,93.57
2019-04-04T02:21:35.813Z,93.56
2019-04-04T02:24:03.110Z,93.64
2019-04-04T02:26:29.923Z,93.56
2019-04-04T02:28:56.673Z,93.41
2019-04-04T02:31:23.846Z,93.59
2019-04-04T02:33:50.721Z,93.56
2019-04-04T02:36:17.614Z,93.55
2019-04-04T02:39:00.777Z,93.61
2019-04-04T02:41:27.641Z,94.01
2019-04-04T02:43:54.402Z,94.01
2019-04-04T02:46:21.340Z,94.00
2019-04-04T02:48:48.059Z,94.05
2019-04-04T02:51:16.973Z,94.11
2019-04-04T02:53:43.690Z,94.33
2019-04-04T02:56:11.554Z,94.35
2019-04-04T02:58:39.003Z,94.47
2019-04-04T03:01:05.721Z,94.39
2019-04-04T03:03:33.019Z,94.47
2019-04-04T03:06:01.090Z,94.60
2019-04-04T03:08:27.966Z,94.61
2019-04-04T03:10:55.089Z,94.55
2019-04-04T03:13:21.806Z,94.69
2019-04-04T03:15:48.520Z,94.67
2019-04-04T03:18:15.183Z,94.59
2019-04-04T03:20:42.219Z,94.51
2019-04-04T03:23:08.952Z,94.56
2019-04-04T03:25:36.076Z,94.57
2019-04-04T03:28:04.148Z,94.63
2019-04-04T03:30:31.126Z,94.82
2019-04-04T03:32:57.792Z,94.80
2019-04-04T03:35:28.534Z,94.83
2019-04-04T03:37:55.100Z,94.99
2019-04-04T03:40:24.643Z,95.15
2019-04-04T03:42:50.310Z,95.20
2019-04-04T03:45:17.535Z,95.34
2019-04-04T03:47:44.848Z,95.14
2019-04-04T03:50:11.774Z,95.32
2019-04-04T03:52:43.365Z,95.28
2019-04-04T03:55:08.861Z,95.23
2019-04-04T03:57:36.185Z,95.23
2019-04-04T04:00:06.985Z,95.20
2019-04-04T04:02:33.194Z,95.12
2019-04-04T04:05:01.912Z,95.13
2019-04-04T04:07:29.195Z,95.04
2019-04-04T04:09:59.358Z,95.18
2019-04-04T04:12:25.739Z,95.12
2019-04-04T04:14:54.941Z,95.07
2019-04-04T04:17:20.995Z,95.12
2019-04-04T04:19:47.647Z,95.01
2019-04-04T04:22:18.293Z,94.78
2019-04-04T04:24:48.913Z,94.73
2019-04-04T04:27:16.690Z,94.71
2019-04-04T04:29:43.557Z,94.64
2019-04-04T04:32:11.505Z,94.43
2019-04-04T04:34:38.253Z,94.67
2019-04-04T04:37:05.136Z,94.33
2019-04-04T04:39:35.299Z,94.34
2019-04-04T04:42:01.215Z,94.38
2019-04-04T04:44:28.949Z,94.35
2019-04-04T04:46:55.512Z,94.31
2019-04-04T04:49:23.454Z,94.18
2019-04-04T04:51:51.244Z,94.16
2019-04-04T04:54:17.827Z,94.41
2019-04-04T04:56:44.565Z,94.26
2019-04-04T04:59:13.837Z,93.92
2019-04-04T05:01:41.904Z,94.10
2019-04-04T05:04:08.880Z,93.99
2019-04-04T05:06:36.376Z,93.63
2019-04-04T05:09:04.956Z,93.76
2019-04-04T05:11:33.124Z,93.76
2019-04-04T05:13:59.797Z,93.90
2019-04-04T05:16:26.483Z,94.01
2019-04-04T05:18:53.404Z,93.86
2019-04-04T05:21:25.513Z,93.96
2019-04-04T05:23:49.113Z,93.95
2019-04-04T05:26:15.980Z,93.95
2019-04-04T05:28:42.727Z,93.99
2019-04-04T05:31:09.292Z,93.98
2019-04-04T05:33:36.272Z,93.93
2019-04-04T05:36:05.323Z,93.78
2019-04-04T05:38:32.302Z,93.90
2019-04-04T05:40:59.561Z,93.84
2019-04-04T05:43:26.358Z,93.54
2019-04-04T05:45:53.486Z,93.46
2019-04-04T05:48:20.215Z,93.50
2019-04-04T05:50:46.943Z,93.37
2019-04-04T05:53:14.599Z,93.28
2019-04-04T05:55:41.778Z,93.28
2019-04-04T05:58:10.211Z,93.28
2019-04-04T06:00:38.472Z,93.33
2019-04-04T06:03:05.642Z,93.24
2019-04-04T06:05:32.265Z,92.88
2019-04-04T06:07:59.289Z,93.00
2019-04-04T06:10:27.631Z,92.87
2019-04-04T06:12:56.289Z,92.79
2019-04-04T06:15:23.623Z,92.77
2019-04-04T06:17:50.254Z,92.93
2019-04-04T06:20:18.241Z,92.57
2019-04-04T06:22:45.068Z,92.59
2019-04-04T06:25:11.942Z,92.30
2019-04-04T06:27:40.316Z,92.11
2019-04-04T06:30:08.720Z,92.38
2019-04-04T06:32:38.604Z,92.45
2019-04-04T06:35:04.399Z,92.37
2019-04-04T06:37:31.001Z,92.34
2019-04-04T06:39:58.897Z,92.40
2019-04-04T06:42:26.277Z,92.48
2019-04-04T06:44:54.289Z,92.42
2019-04-04T06:47:23.164Z,92.17
2019-04-04T06:49:51.413Z,92.10
2019-04-04T06:52:19.197Z,92.20
2019-04-04T06:54:45.958Z,92.14
2019-04-04T06:57:15.692Z,92.01
2019-04-04T06:59:44.015Z,91.94
2019-04-04T07:02:10.679Z,91.78
2019-04-04T07:04:37.772Z,91.48
2019-04-04T07:07:05.974Z,90.67
2019-04-04T07:09:32.938Z,90.42
2019-04-04T07:11:59.671Z,89.79
2019-04-04T07:14:29.992Z,89.52
2019-04-04T07:16:56.319Z,89.12
2019-04-04T07:19:23.418Z,88.71
2019-04-04T07:21:51.331Z,88.43
2019-04-04T07:24:18.563Z,87.42
2019-04-04T07:26:46.028Z,87.09
2019-04-04T07:29:12.838Z,87.04
2019-04-04T07:31:39.990Z,87.66
2019-04-04T07:34:09.045Z,87.40
2019-04-04T07:36:36.055Z,87.25
2019-04-04T07:39:04.621Z,86.57
2019-04-04T07:41:31.608Z,86.23
2019-04-04T07:43:58.671Z,86.23
2019-04-04T07:46:25.690Z,85.27
2019-04-04T07:48:52.456Z,84.22
2019-04-04T07:51:19.746Z,84.56
2019-04-04T07:53:47.386Z,83.73
2019-04-04T07:56:14.944Z,84.06
2019-04-04T07:58:41.767Z,83.82
2019-04-04T08:01:08.498Z,83.84
2019-04-04T08:03:35.431Z,83.11
2019-04-04T08:06:02.534Z,82.30
2019-04-04T08:08:29.399Z,82.30
2019-04-04T08:10:56.167Z,81.10
2019-04-04T08:13:22.925Z,79.55
2019-04-04T08:15:49.486Z,80.33
2019-04-04T08:18:18.348Z,80.79
2019-04-04T08:20:45.532Z,79.94
2019-04-04T08:23:14.429Z,80.40
2019-04-04T08:25:41.135Z,79.67
2019-04-04T08:28:09.970Z,79.50
2019-04-04T08:30:37.376Z,80.54
2019-04-04T08:33:05.122Z,79.92
2019-04-04T08:35:31.988Z,79.64
2019-04-04T08:38:00.090Z,81.02
2019-04-04T08:40:28.665Z,81.15
2019-04-04T08:42:55.527Z,79.50
2019-04-04T08:45:22.271Z,79.53
2019-04-04T08:47:50.792Z,76.21
2019-04-04T08:50:19.951Z,75.78
2019-04-04T08:52:51.271Z,75.24
2019-04-04T08:55:18.126Z,73.10
2019-04-04T08:57:46.314Z,72.84
2019-04-04T09:00:13.896Z,73.11
2019-04-04T09:02:42.379Z,73.99
2019-04-04T09:05:12.286Z,75.35
2019-04-04T09:07:39.110Z,75.65
2019-04-04T09:10:06.279Z,73.84
2019-04-04T09:12:33.668Z,74.51
2019-04-04T09:15:01.247Z,75.52
2019-04-04T09:17:29.372Z,75.06
2019-04-04T09:19:56.676Z,77.73
2019-04-04T09:22:24.230Z,77.88
2019-04-04T09:24:51.108Z,78.50
2019-04-04T09:27:18.891Z,78.58
2019-04-04T09:29:46.856Z,78.75
2019-04-04T09:32:14.668Z,78.22
2019-04-04T09:34:41.450Z,77.95
2019-04-04T09:37:08.886Z,77.54
2019-04-04T09:39:35.955Z,77.77
2019-04-04T09:42:02.763Z,77.84
2019-04-04T09:44:29.559Z,77.48
2019-04-04T09:47:05.291Z,77.87
2019-04-04T09:49:26.633Z,77.75
2019-04-04T09:51:53.595Z,76.72
2019-04-04T09:54:20.349Z,76.85
2019-04-04T09:56:47.216Z,76.39
2019-04-04T09:59:14.630Z,76.96
2019-04-04T10:01:41.724Z,77.06
2019-04-04T10:04:09.202Z,77.04
2019-04-04T10:06:35.830Z,77.62
2019-04-04T10:09:15.468Z,76.99
2019-04-04T10:11:34.242Z,75.10
2019-04-04T10:14:03.904Z,75.07
2019-04-04T10:16:29.996Z,73.90
2019-04-04T10:18:57.639Z,74.24
2019-04-04T10:21:24.265Z,75.82
2019-04-04T10:23:51.653Z,75.62
2019-04-04T10:26:18.316Z,74.95
2019-04-04T10:28:45.186Z,75.57
2019-04-04T10:31:11.944Z,73.95
2019-04-04T10:33:41.987Z,74.92
2019-04-04T10:36:09.196Z,75.96
2019-04-04T10:38:37.259Z,73.63
2019-04-04T10:41:04.126Z,74.45
2019-04-04T10:43:31.126Z,73.73
2019-04-04T10:45:59.427Z,73.83
2019-04-04T10:48:26.609Z,73.66
2019-04-04T10:50:54.672Z,74.55
2019-04-04T10:53:21.961Z,73.01
2019-04-04T10:55:48.934Z,73.39
2019-04-04T10:58:16.405Z,74.71
2019-04-04T11:00:44.081Z,74.08
2019-04-04T11:03:12.051Z,73.33
2019-04-04T11:05:38.613Z,73.38
2019-04-04T11:08:05.612Z,73.39
2019-04-04T11:10:32.404Z,72.85
2019-04-04T11:13:02.655Z,73.43
2019-04-04T11:15:31.518Z,74.27
2019-04-04T11:17:59.602Z,73.22
2019-04-04T11:20:26.771Z,72.89
2019-04-04T11:22:53.960Z,72.53
2019-04-04T11:25:21.435Z,73.61
2019-04-04T11:27:48.348Z,72.55
2019-04-04T11:30:17.678Z,72.91
2019-04-04T11:32:48.823Z,73.24
2019-04-04T11:35:14.782Z,73.55
2019-04-04T11:37:41.531Z,70.66
2019-04-04T11:40:09.272Z,71.33
2019-04-04T11:42:36.642Z,70.89
2019-04-04T11:45:03.799Z,72.17
2019-04-04T11:47:32.008Z,71.66
2019-04-04T11:50:03.959Z,71.87
2019-04-04T11:52:30.551Z,73.00
2019-04-04T11:54:59.031Z,72.62
2019-04-04T11:57:26.133Z,73.09
2019-04-04T11:59:54.966Z,74.33
2019-04-04T12:02:22.028Z,72.08
2019-04-04T12:04:49.033Z,70.78
2019-04-04T12:07:15.931Z,73.44
2019-04-04T12:09:42.565Z,70.92
2019-04-04T12:12:09.182Z,71.88
2019-04-04T12:14:36.338Z,70.75
2019-04-04T12:17:04.154Z,72.06
2019-04-04T12:19:30.791Z,72.40
2019-04-04T12:21:57.427Z,71.87
2019-04-04T12:24:25.965Z,72.71
2019-04-04T12:26:52.750Z,73.33
2019-04-04T12:29:19.526Z,73.86
2019-04-04T12:31:46.146Z,73.33
2019-04-04T12:34:12.715Z,73.43
2019-04-04T12:36:39.701Z,73.77
2019-04-04T12:39:06.952Z,73.27
2019-04-04T12:41:34.643Z,74.02
2019-04-04T12:44:03.039Z,73.99
2019-04-04T12:46:29.658Z,74.53
2019-04-04T12:48:56.262Z,72.46
2019-04-04T12:51:23.317Z,72.35
2019-04-04T12:53:49.899Z,73.59
2019-04-04T12:56:16.568Z,71.74
2019-04-04T12:58:43.161Z,70.51
2019-04-04T13:01:10.832Z,70.28
2019-04-04T13:03:37.588Z,70.06
2019-04-04T13:06:04.504Z,70.75
2019-04-04T13:08:32.147Z,71.56
2019-04-04T13:11:00.035Z,68.65
2019-04-04T13:13:26.640Z,68.58
2019-04-04T13:15:55.063Z,67.35
2019-04-04T13:18:21.927Z,67.33
2019-04-04T13:20:48.789Z,68.69
2019-04-04T13:23:15.482Z,68.71
2019-04-04T13:25:42.468Z,70.40
2019-04-04T13:28:09.186Z,66.75
2019-04-04T13:30:35.961Z,69.46
2019-04-04T13:33:02.722Z,68.75
2019-04-04T13:35:31.147Z,67.91
2019-04-04T13:37:59.043Z,67.61
2019-04-04T13:40:26.131Z,66.61
2019-04-04T13:42:54.548Z,67.43
2019-04-04T13:45:24.894Z,69.23
2019-04-04T13:47:52.476Z,68.98
2019-04-04T13:50:20.503Z,69.30
2019-04-04T13:52:47.364Z,68.60
2019-04-04T13:55:14.819Z,66.42
2019-04-04T13:57:42.278Z,68.42
2019-04-04T14:00:09.535Z,68.30
2019-04-04T14:02:37.389Z,63.79
2019-04-04T14:05:10.643Z,63.77
2019-04-04T14:07:35.140Z,65.71
2019-04-04T14:10:02.212Z,63.10
2019-04-04T14:12:29.489Z,63.98
2019-04-04T14:14:56.140Z,65.10
2019-04-04T14:17:23.311Z,66.38
2019-04-04T14:19:49.959Z,64.64
2019-04-04T14:22:17.321Z,65.04
2019-04-04T14:24:45.286Z,63.57
2019-04-04T14:27:12.273Z,64.49
2019-04-04T14:29:38.998Z,65.58
2019-04-04T14:32:06.223Z,65.38
2019-04-04T14:34:32.933Z,67.87
2019-04-04T14:37:00.017Z,69.91
2019-04-04T14:39:26.614Z,70.89
2019-04-04T14:41:53.210Z,70.52
2019-04-04T14:44:19.939Z,72.03
2019-04-04T14:46:46.716Z,72.11
2019-04-04T14:49:15.135Z,73.30
2019-04-04T14:51:41.814Z,72.92
2019-04-04T14:54:09.510Z,71.22
2019-04-04T14:56:36.222Z,72.15
2019-04-04T14:59:04.848Z,72.53
2019-04-04T15:01:35.083Z,72.90
2019-04-04T15:04:01.992Z,72.16
2019-04-04T15:06:28.833Z,70.82
2019-04-04T15:08:56.141Z,71.87
2019-04-04T15:11:24.453Z,70.31
2019-04-04T15:13:51.321Z,70.29
2019-04-04T15:16:18.020Z,69.58
2019-04-04T15:18:45.012Z,70.46
2019-04-04T15:21:13.879Z,71.59
2019-04-04T15:23:41.076Z,71.79
2019-04-04T15:26:09.762Z,73.30
2019-04-04T15:28:36.389Z,72.11
2019-04-04T15:31:03.994Z,73.06
2019-04-04T15:33:30.972Z,73.40
2019-04-04T15:35:57.782Z,72.25
2019-04-04T15:38:25.432Z,71.08
2019-04-04T15:40:52.169Z,73.03
2019-04-04T15:43:18.774Z,71.67
2019-04-04T15:45:45.911Z,73.67
2019-04-04T15:48:12.784Z,73.52
2019-04-04T15:50:39.735Z,73.91
2019-04-04T15:53:07.077Z,75.53
2019-04-04T15:55:34.204Z,74.62
2019-04-04T15:58:02.822Z,73.59
2019-04-04T16:00:29.807Z,73.01
2019-04-04T16:02:56.785Z,74.08
2019-04-04T16:05:23.813Z,74.56
2019-04-04T16:07:50.548Z,74.86
2019-04-04T16:10:17.380Z,74.82
2019-04-04T16:12:44.364Z,74.74
2019-04-04T16:15:11.425Z,76.39
2019-04-04T16:17:38.394Z,75.10
2019-04-04T16:20:05.694Z,77.53
2019-04-04T16:22:32.550Z,78.21
2019-04-04T16:25:00.618Z,78.16
2019-04-04T16:27:28.932Z,79.31
2019-04-04T16:29:56.411Z,78.93
2019-04-04T16:32:25.362Z,79.41
2019-04-04T16:34:52.813Z,79.54
2019-04-04T16:37:20.472Z,79.09
2019-04-04T16:39:47.688Z,78.95
2019-04-04T16:42:14.542Z,79.45
2019-04-04T16:44:41.477Z,79.77
2019-04-04T16:47:08.368Z,79.22
2019-04-04T16:49:34.938Z,79.05
2019-04-04T16:52:01.703Z,78.37
2019-04-04T16:54:28.521Z,78.97
2019-04-04T16:56:55.400Z,79.41
2019-04-04T16:59:22.609Z,80.27
2019-04-04T17:01:49.273Z,80.89
2019-04-04T17:04:16.825Z,80.92
2019-04-04T17:06:43.451Z,81.51
2019-04-04T17:09:13.655Z,82.07
2019-04-04T17:11:42.766Z,82.17
2019-04-04T17:14:10.584Z,82.00
2019-04-04T17:16:37.369Z,82.09
2019-04-04T17:19:04.156Z,82.71
2019-04-04T17:21:31.236Z,83.19
2019-04-04T17:23:59.113Z,83.31
2019-04-04T17:26:25.933Z,83.60
2019-04-04T17:28:53.258Z,84.02
2019-04-04T17:31:21.532Z,84.30
2019-04-04T17:33:49.488Z,84.86
2019-04-04T17:36:16.273Z,85.33
2019-04-04T17:38:43.079Z,85.49
2019-04-04T17:41:09.967Z,86.17
2019-04-04T17:43:37.372Z,86.35
2019-04-04T17:46:04.537Z,86.53
2019-04-04T17:48:32.913Z,86.69
2019-04-04T17:51:00.919Z,87.00
2019-04-04T17:53:28.983Z,87.27
2019-04-04T17:55:56.428Z,87.40
2019-04-04T17:58:24.105Z,87.50
2019-04-04T18:00:50.917Z,87.71
2019-04-04T18:03:17.750Z,87.87
2019-04-04T18:05:45.432Z,87.97
2019-04-04T18:08:12.859Z,88.36
2019-04-04T18:10:39.537Z,88.79
2019-04-04T18:13:07.024Z,88.84
2019-04-04T18:15:34.316Z,89.23
2019-04-04T18:18:01.135Z,89.16
2019-04-04T18:20:28.439Z,89.30
2019-04-04T18:22:55.539Z,89.35
2019-04-04T18:25:22.166Z,89.22
2019-04-04T18:27:48.891Z,89.53
2019-04-04T18:30:15.872Z,89.80
2019-04-04T18:32:42.652Z,90.15
2019-04-04T18:35:10.692Z,90.38
2019-04-04T18:37:37.479Z,90.47
2019-04-04T18:40:05.707Z,90.43
2019-04-04T18:42:32.616Z,90.55
2019-04-04T18:44:59.287Z,90.62
2019-04-04T18:47:28.317Z,90.67
2019-04-04T18:49:55.067Z,90.79
2019-04-04T18:52:40.191Z,90.69
2019-04-04T18:55:19.162Z,90.83
2019-04-04T18:57:38.336Z,90.83
2019-04-04T19:00:06.754Z,91.03
2019-04-04T19:02:43.172Z,91.03
2019-04-04T19:05:19.888Z,91.08
2019-04-04T19:07:50.202Z,91.20
2019-04-04T19:10:18.819Z,91.24
2019-04-04T19:12:47.867Z,91.62
2019-04-04T19:15:16.671Z,91.62
2019-04-04T19:17:43.644Z,91.55
2019-04-04T19:20:11.491Z,91.78
2019-04-04T19:22:38.361Z,91.73
2019-04-04T19:25:06.593Z,91.80
2019-04-04T19:27:33.851Z,91.80
2019-04-04T19:30:00.941Z,91.57
2019-04-04T19:32:27.761Z,91.67
2019-04-04T19:34:54.545Z,92.03
2019-04-04T19:37:22.921Z,92.03
2019-04-04T19:39:50.598Z,92.12
2019-04-04T19:42:17.567Z,92.19
2019-04-04T19:44:53.147Z,92.32
2019-04-04T19:47:14.699Z,92.43
2019-04-04T19:49:43.312Z,92.45
2019-04-04T19:52:13.943Z,92.54
2019-04-04T19:54:42.094Z,92.58
2019-04-04T19:57:09.880Z,92.75
2019-04-04T19:59:36.820Z,92.78
2019-04-04T20:02:05.224Z,92.88
2019-04-04T20:04:31.988Z,92.86
2019-04-04T20:07:03.618Z,92.91
2019-04-04T20:09:30.433Z,92.94
2019-04-04T20:11:57.901Z,93.06
2019-04-04T20:14:28.904Z,93.09
2019-04-04T20:16:55.508Z,93.09
2019-04-04T20:19:22.285Z,93.19
2019-04-04T20:21:49.093Z,93.28
2019-04-04T20:24:15.702Z,93.40
2019-04-04T20:26:42.503Z,93.42
2019-04-04T20:29:09.566Z,93.62
2019-04-04T20:31:36.196Z,93.61
2019-04-04T20:34:06.048Z,93.67
2019-04-04T20:36:33.056Z,93.74
2019-04-04T20:38:59.821Z,93.76
2019-04-04T20:41:26.698Z,93.76
2019-04-04T20:43:54.655Z,93.91
2019-04-04T20:46:21.337Z,93.92
2019-04-04T20:48:48.091Z,93.99
2019-04-04T20:51:14.664Z,94.06
2019-04-04T20:53:42.511Z,94.02
2019-04-04T20:56:09.203Z,94.15
2019-04-04T20:58:37.026Z,94.22
2019-04-04T21:01:04.352Z,94.25
2019-04-04T21:03:31.347Z,94.31
2019-04-04T21:05:58.620Z,94.38
2019-04-04T21:08:25.855Z,94.46
2019-04-04T21:10:53.549Z,94.50
2019-04-04T21:13:20.164Z,94.50
2019-04-04T21:15:47.570Z,94.47
2019-04-04T21:18:14.649Z,94.57
2019-04-04T21:20:41.685Z,94.55
2019-04-04T21:23:09.154Z,94.59
2019-04-04T21:25:36.163Z,94.57
2019-04-04T21:28:02.820Z,94.66
2019-04-04T21:30:29.599Z,94.69
2019-04-04T21:32:56.379Z,94.69
2019-04-04T21:35:23.163Z,94.61
2019-04-04T21:37:51.041Z,94.49
2019-04-04T21:40:18.061Z,94.86
2019-04-04T21:42:45.834Z,94.86
2019-04-04T21:45:16.150Z,94.73
2019-04-04T21:47:42.804Z,94.72
2019-04-04T21:50:10.219Z,94.76
2019-04-04T21:52:36.837Z,94.73
2019-04-04T21:55:03.938Z,94.69
2019-04-04T21:57:31.131Z,94.79
2019-04-04T21:59:59.481Z,94.92
2019-04-04T22:02:26.213Z,94.91
2019-04-04T22:04:52.937Z,94.79
2019-04-04T22:07:20.108Z,94.64
2019-04-04T22:09:46.746Z,94.47
2019-04-04T22:12:14.603Z,94.46
2019-04-04T22:14:42.167Z,94.50
2019-04-04T22:17:08.769Z,94.45
2019-04-04T22:19:36.045Z,94.32
2019-04-04T22:22:02.929Z,94.39
2019-04-04T22:24:29.611Z,94.39
2019-04-04T22:26:56.193Z,94.31
2019-04-04T22:29:22.901Z,94.26
2019-04-04T22:31:50.102Z,94.18
2019-04-04T22:34:17.127Z,94.23
2019-04-04T22:36:43.742Z,94.24
2019-04-04T22:39:10.805Z,94.18
2019-04-04T22:41:37.698Z,94.25
2019-04-04T22:44:04.761Z,94.30
2019-04-04T22:46:32.552Z,94.39
2019-04-04T22:48:59.386Z,94.37
2019-04-04T22:51:26.094Z,94.43
2019-04-04T22:53:52.646Z,94.41
2019-04-04T22:56:19.355Z,94.45
2019-04-04T22:58:46.251Z,94.52
2019-04-04T23:01:13.396Z,94.51
2019-04-04T23:03:40.184Z,94.53
2019-04-04T23:06:06.920Z,94.52
2019-04-04T23:08:33.711Z,94.65
2019-04-04T23:11:00.662Z,94.69
2019-04-04T23:13:27.796Z,94.65
2019-04-04T23:15:54.431Z,94.60
2019-04-04T23:18:21.430Z,94.62
2019-04-04T23:20:49.224Z,94.69
2019-04-04T23:23:15.885Z,94.69
2019-04-04T23:25:43.574Z,94.71
2019-04-04T23:28:11.217Z,94.75
2019-04-04T23:30:38.391Z,94.69
2019-04-04T23:33:05.683Z,94.77
2019-04-04T23:35:34.644Z,94.70
2019-04-04T23:38:01.531Z,94.70
2019-04-04T23:40:29.538Z,94.74
2019-04-04T23:42:56.578Z,94.79
2019-04-04T23:45:23.418Z,94.77
2019-04-04T23:47:50.679Z,94.82
2019-04-04T23:50:17.340Z,94.78
2019-04-04T23:52:44.191Z,94.75
2019-04-04T23:55:11.716Z,94.72
2019-04-04T23:57:38.616Z,94.75
